createdAt,value
2019-02-25T00:01:49.739Z,20.22
2019-02-25T00:06:52.517Z,20.20
2019-02-25T00:11:55.285Z,20.19
2019-02-25T00:16:58.126Z,20.23
2019-02-25T00:22:00.900Z,20.23
2019-02-25T00:27:03.757Z,20.21
2019-02-25T00:32:06.528Z,20.26
2019-02-25T00:37:09.328Z,20.25
2019-02-25T00:42:12.118Z,20.26
2019-02-25T00:47:14.873Z,20.26
2019-02-25T00:52:17.636Z,20.24
2019-02-25T00:57:20.442Z,20.25
2019-02-25T01:02:23.207Z,20.23
2019-02-25T01:07:25.990Z,20.24
2019-02-25T01:12:28.844Z,20.26
2019-02-25T01:17:31.640Z,20.29
2019-02-25T01:22:34.424Z,20.29
2019-02-25T01:27:37.280Z,20.27
2019-02-25T01:32:40.136Z,20.29
2019-02-25T01:37:42.972Z,20.32
2019-02-25T01:42:45.764Z,20.34
2019-02-25T01:47:48.615Z,20.33
2019-02-25T01:52:51.530Z,20.36
2019-02-25T01:57:54.345Z,20.37
2019-02-25T02:02:57.172Z,20.35
2019-02-25T02:07:59.948Z,20.35
2019-02-25T02:13:02.800Z,20.34
2019-02-25T02:18:05.616Z,20.38
2019-02-25T02:23:08.544Z,20.43
2019-02-25T02:28:11.323Z,20.40
2019-02-25T02:33:14.119Z,20.37
2019-02-25T02:38:16.876Z,20.42
2019-02-25T02:43:19.677Z,20.39
2019-02-25T02:48:26.696Z,20.41
2019-02-25T02:53:29.497Z,20.37
2019-02-25T02:58:32.365Z,20.43
2019-02-25T03:03:35.181Z,20.46
2019-02-25T03:08:37.971Z,20.43
2019-02-25T03:13:40.790Z,20.44
2019-02-25T03:18:43.546Z,20.46
2019-02-25T03:23:46.585Z,20.44
2019-02-25T03:28:49.408Z,20.48
2019-02-25T03:33:52.262Z,20.49
2019-02-25T03:38:55.050Z,20.51
2019-02-25T03:43:57.834Z,20.47
2019-02-25T03:49:00.604Z,20.47
2019-02-25T03:54:03.438Z,20.44
2019-02-25T03:59:06.293Z,20.43
2019-02-25T04:04:09.168Z,20.46
2019-02-25T04:09:12.027Z,20.46
2019-02-25T04:14:14.790Z,20.48
2019-02-25T04:19:17.581Z,20.46
2019-02-25T04:24:20.369Z,20.53
2019-02-25T04:29:23.217Z,20.51
2019-02-25T04:34:26.001Z,20.42
2019-02-25T04:39:28.785Z,20.43
2019-02-25T04:44:31.573Z,20.51
2019-02-25T04:49:34.363Z,20.49
2019-02-25T04:54:37.260Z,20.42
2019-02-25T04:59:40.072Z,20.44
2019-02-25T05:04:42.842Z,20.40
2019-02-25T05:09:45.636Z,20.45
2019-02-25T05:14:48.416Z,20.47
2019-02-25T05:19:51.188Z,20.42
2019-02-25T05:24:53.971Z,20.38
2019-02-25T05:29:56.760Z,20.53
2019-02-25T05:34:59.547Z,20.57
2019-02-25T05:45:28.385Z,20.50
2019-02-25T05:50:31.164Z,20.49
2019-02-25T05:55:33.951Z,20.44
2019-02-25T06:00:36.878Z,20.40
2019-02-25T06:05:39.672Z,20.41
2019-02-25T06:16:11.292Z,20.37
2019-02-25T06:21:14.117Z,20.39
2019-02-25T06:26:22.810Z,20.37
2019-02-25T06:31:26.076Z,20.38
2019-02-25T06:36:28.861Z,20.36
2019-02-25T06:41:49.247Z,20.32
2019-02-25T06:46:49.293Z,20.36
2019-02-25T06:51:52.148Z,20.35
2019-02-25T06:56:54.932Z,20.35
2019-02-25T07:01:57.699Z,20.35
2019-02-25T07:07:11.112Z,20.32
2019-02-25T07:12:24.389Z,20.33
2019-02-25T07:17:40.720Z,20.30
2019-02-25T07:22:45.165Z,20.34
2019-02-25T07:33:41.509Z,20.32
2019-02-25T07:38:51.581Z,20.29
2019-02-25T07:43:56.000Z,20.25
2019-02-25T07:49:06.067Z,20.24
2019-02-25T07:54:10.497Z,20.24
2019-02-25T07:59:31.507Z,20.24
2019-02-25T08:04:41.965Z,20.26
2019-02-25T08:09:52.270Z,20.25
2019-02-25T08:15:05.700Z,20.23
2019-02-25T08:20:22.456Z,20.25
2019-02-25T08:25:42.904Z,20.22
2019-02-25T08:30:47.412Z,20.25
2019-02-25T08:35:58.964Z,20.25
2019-02-25T08:41:04.219Z,20.21
2019-02-25T08:46:26.656Z,20.21
2019-02-25T08:51:29.426Z,20.19
2019-02-25T08:56:32.324Z,20.23
2019-02-25T09:01:35.189Z,20.19
2019-02-25T09:06:37.980Z,20.20
2019-02-25T09:11:40.745Z,20.18
2019-02-25T09:16:43.612Z,20.22
2019-02-25T09:21:46.392Z,20.18
2019-02-25T09:26:49.164Z,20.19
2019-02-25T09:31:51.969Z,20.22
2019-02-25T09:36:54.765Z,20.22
2019-02-25T09:41:57.525Z,20.16
2019-02-25T09:47:00.305Z,20.20
2019-02-25T09:52:03.073Z,20.19
2019-02-25T09:57:05.836Z,20.23
2019-02-25T10:02:08.616Z,20.22
2019-02-25T10:07:11.505Z,20.23
2019-02-25T10:12:14.299Z,20.27
2019-02-25T10:17:23.518Z,20.24
2019-02-25T10:22:21.520Z,20.19
2019-02-25T10:27:24.290Z,20.18
2019-02-25T10:32:28.066Z,20.24
2019-02-25T10:37:31.535Z,20.29
2019-02-25T10:42:36.102Z,20.28
2019-02-25T10:47:38.816Z,20.24
2019-02-25T10:52:42.947Z,20.26
2019-02-25T10:57:46.408Z,20.28
2019-02-25T11:02:51.152Z,20.28
2019-02-25T11:07:53.721Z,20.29
2019-02-25T11:12:57.700Z,20.33
2019-02-25T11:18:00.987Z,20.37
2019-02-25T11:23:03.921Z,20.38
2019-02-25T11:28:07.708Z,20.42
2019-02-25T11:33:11.346Z,20.47
2019-02-25T11:38:14.129Z,20.52
2019-02-25T11:43:18.912Z,20.61
2019-02-25T11:48:22.692Z,20.51
2019-02-25T11:53:25.592Z,20.53
2019-02-25T11:58:28.458Z,20.64
2019-02-25T12:03:31.254Z,20.76
2019-02-25T12:08:34.047Z,20.58
2019-02-25T12:13:36.816Z,20.89
2019-02-25T12:18:39.604Z,20.77
2019-02-25T12:23:42.391Z,21.06
2019-02-25T12:28:45.173Z,20.86
2019-02-25T12:33:47.965Z,20.94
2019-02-25T12:38:50.735Z,20.81
2019-02-25T12:43:53.516Z,20.93
2019-02-25T12:48:56.292Z,21.13
2019-02-25T12:53:59.092Z,20.94
2019-02-25T12:59:01.944Z,20.86
2019-02-25T13:04:04.806Z,20.81
2019-02-25T13:09:09.104Z,20.79
2019-02-25T13:14:11.932Z,20.81
2019-02-25T13:19:14.712Z,21.18
2019-02-25T13:24:17.489Z,21.23
2019-02-25T13:29:20.277Z,21.27
2019-02-25T13:34:23.054Z,21.42
2019-02-25T13:39:25.840Z,21.50
2019-02-25T13:44:28.694Z,21.54
2019-02-25T13:49:31.466Z,21.53
2019-02-25T13:54:34.246Z,21.77
2019-02-25T13:59:37.230Z,21.99
2019-02-25T14:04:40.043Z,21.87
2019-02-25T14:09:42.885Z,21.88
2019-02-25T14:14:45.656Z,22.44
2019-02-25T14:19:48.488Z,23.03
2019-02-25T14:24:51.433Z,23.38
2019-02-25T14:29:54.288Z,23.19
2019-02-25T14:34:57.078Z,23.14
2019-02-25T14:40:02.872Z,23.20
2019-02-25T14:45:07.201Z,22.79
2019-02-25T14:50:14.417Z,22.88
2019-02-25T14:55:17.476Z,22.32
2019-02-25T15:00:29.192Z,22.09
2019-02-25T15:05:31.452Z,22.44
2019-02-25T15:10:36.227Z,22.38
2019-02-25T15:15:41.167Z,22.65
2019-02-25T15:24:53.051Z,22.56
2019-02-25T15:29:56.470Z,22.68
2019-02-25T15:34:59.253Z,21.92
2019-02-25T15:40:02.034Z,21.57
2019-02-25T15:45:06.420Z,21.42
2019-02-25T15:50:10.587Z,21.24
2019-02-25T15:55:17.385Z,21.17
2019-02-25T16:00:23.263Z,21.12
2019-02-25T16:05:27.921Z,21.03
2019-02-25T16:10:31.735Z,20.99
2019-02-25T16:15:34.805Z,20.91
2019-02-25T16:20:37.667Z,20.87
2019-02-25T16:25:40.522Z,20.69
2019-02-25T16:30:44.708Z,20.55
2019-02-25T16:35:47.803Z,20.49
2019-02-25T16:40:54.723Z,20.41
2019-02-25T16:45:55.163Z,20.37
2019-02-25T16:50:57.953Z,20.31
2019-02-25T16:56:00.737Z,20.28
2019-02-25T17:01:06.026Z,20.34
2019-02-25T17:06:11.687Z,20.33
2019-02-25T17:11:15.648Z,20.32
2019-02-25T17:16:23.515Z,20.34
2019-02-25T17:21:23.391Z,20.42
2019-02-25T17:26:26.248Z,20.38
2019-02-25T17:31:30.559Z,20.35
2019-02-25T17:36:33.606Z,20.38
2019-02-25T17:41:37.847Z,20.39
2019-02-25T17:46:41.289Z,20.38
2019-02-25T17:51:45.327Z,20.37
2019-02-25T17:56:49.759Z,20.40
2019-02-25T18:01:52.917Z,20.38
2019-02-25T18:06:55.767Z,20.36
2019-02-25T18:12:00.041Z,20.35
2019-02-25T18:17:03.396Z,20.36
2019-02-25T18:22:07.450Z,20.35
2019-02-25T18:27:11.949Z,20.36
2019-02-25T18:32:15.271Z,20.31
2019-02-25T18:37:18.309Z,20.31
2019-02-25T18:42:21.155Z,20.33
2019-02-25T18:47:25.597Z,20.32
2019-02-25T18:52:29.650Z,20.35
2019-02-25T18:57:32.937Z,20.38
2019-02-25T19:02:36.464Z,20.33
2019-02-25T19:07:40.430Z,20.31
2019-02-25T19:12:43.890Z,20.27
2019-02-25T19:17:48.465Z,20.24
2019-02-25T19:22:53.331Z,20.21
2019-02-25T19:27:56.589Z,20.16
2019-02-25T19:33:09.288Z,20.14
2019-02-25T19:38:07.544Z,20.14
2019-02-25T19:43:10.146Z,20.13
2019-02-25T19:48:13.457Z,20.09
2019-02-25T19:53:19.454Z,20.09
2019-02-25T19:58:21.013Z,20.07
2019-02-25T20:03:23.805Z,20.08
2019-02-25T20:08:26.668Z,20.10
2019-02-25T20:13:29.553Z,20.09
2019-02-25T20:18:33.814Z,20.03
2019-02-25T20:23:36.826Z,20.05
2019-02-25T20:28:41.232Z,20.03
2019-02-25T20:33:44.089Z,20.04
2019-02-25T20:38:46.889Z,19.99
2019-02-25T20:43:53.940Z,19.99
2019-02-25T20:48:56.033Z,19.99
2019-02-25T20:53:58.648Z,20.03
2019-02-25T20:59:03.349Z,20.01
2019-02-25T21:04:05.936Z,19.99
2019-02-25T21:09:09.304Z,19.99
2019-02-25T21:14:13.196Z,19.95
2019-02-25T21:19:18.394Z,19.99
2019-02-25T21:24:20.494Z,19.96
2019-02-25T21:29:25.190Z,19.97
2019-02-25T21:34:29.165Z,20.00
2019-02-25T21:39:34.294Z,19.95
2019-02-25T21:44:36.775Z,19.94
2019-02-25T21:49:40.549Z,19.93
2019-02-25T21:54:44.913Z,19.95
2019-02-25T21:59:47.813Z,19.94
2019-02-25T22:04:51.886Z,19.95
2019-02-25T22:09:55.039Z,19.94
2019-02-25T22:14:57.818Z,19.95
